createdAt,value
2023-12-11T00:01:47.500Z,30.05
2023-12-11T00:04:14.777Z,30.35
2023-12-11T00:06:42.114Z,32.55
2023-12-11T00:09:09.452Z,30.95
2023-12-11T00:11:36.709Z,30.58
2023-12-11T00:14:04.037Z,30.90
2023-12-11T00:16:31.259Z,32.80
2023-12-11T00:18:58.949Z,30.85
2023-12-11T00:21:26.280Z,32.00
2023-12-11T00:23:54.214Z,30.42
2023-12-11T00:26:21.374Z,34.42
2023-12-11T00:28:48.765Z,30.58
2023-12-11T00:31:16.233Z,31.42
2023-12-11T00:33:43.763Z,31.30
2023-12-11T00:36:11.196Z,30.70
2023-12-11T00:38:38.492Z,30.42
2023-12-11T00:41:05.792Z,31.83
2023-12-11T00:43:44.461Z,30.40
2023-12-11T00:46:14.547Z,27.92
2023-12-11T00:48:41.999Z,28.65
2023-12-11T00:51:15.856Z,28.98
2023-12-11T00:53:43.166Z,29.30
2023-12-11T00:56:10.338Z,29.35
2023-12-11T00:58:37.529Z,28.77
2023-12-11T01:01:05.047Z,27.90
2023-12-11T01:03:32.308Z,31.20
2023-12-11T01:05:59.492Z,29.88
2023-12-11T01:08:29.589Z,29.83
2023-12-11T01:10:57.038Z,30.05
2023-12-11T01:13:24.523Z,30.55
2023-12-11T01:15:51.757Z,29.48
2023-12-11T01:18:19.152Z,28.98
2023-12-11T01:20:46.396Z,29.42
2023-12-11T01:23:13.676Z,28.85
2023-12-11T01:25:41.110Z,29.95
2023-12-11T01:28:08.407Z,30.85
2023-12-11T01:30:35.764Z,29.05
2023-12-11T01:33:03.914Z,29.02
2023-12-11T01:35:31.363Z,25.40
2023-12-11T01:37:58.585Z,27.73
2023-12-11T01:40:25.785Z,28.35
2023-12-11T01:43:01.240Z,27.23
2023-12-11T01:45:34.555Z,26.55
2023-12-11T01:48:01.812Z,26.67
2023-12-11T01:50:29.232Z,27.63
2023-12-11T01:52:56.967Z,26.15
2023-12-11T01:55:24.880Z,28.42
2023-12-11T01:57:52.585Z,26.13
2023-12-11T02:00:20.247Z,25.60
2023-12-11T02:02:47.741Z,22.92
2023-12-11T02:08:14.448Z,21.55
2023-12-11T02:10:43.117Z,21.73
2023-12-11T02:13:10.776Z,22.13
2023-12-11T02:15:38.071Z,22.45
2023-12-11T02:18:05.428Z,21.98
2023-12-11T02:20:32.876Z,21.88
2023-12-11T02:23:01.954Z,20.65
2023-12-11T02:25:31.997Z,20.08
2023-12-11T02:27:59.674Z,19.48
2023-12-11T02:30:28.801Z,19.35
2023-12-11T02:32:56.168Z,19.00
2023-12-11T02:35:23.564Z,18.77
2023-12-11T02:37:50.752Z,19.45
2023-12-11T02:40:18.135Z,18.75
2023-12-11T02:42:48.553Z,19.20
2023-12-11T02:45:18.983Z,19.80
2023-12-11T02:47:46.489Z,19.23
2023-12-11T02:50:13.819Z,18.55
2023-12-11T02:52:41.039Z,20.38
2023-12-11T02:55:08.597Z,18.92
2023-12-11T02:57:36.046Z,18.77
2023-12-11T03:00:03.542Z,18.40
2023-12-11T03:02:31.264Z,18.48
2023-12-11T03:04:59.479Z,19.27
2023-12-11T03:07:27.059Z,18.02
2023-12-11T03:09:54.425Z,19.35
2023-12-11T03:12:21.701Z,18.10
2023-12-11T03:14:49.052Z,17.95
2023-12-11T03:17:16.427Z,17.85
2023-12-11T03:19:43.810Z,17.90
2023-12-11T03:22:11.149Z,18.02
2023-12-11T03:24:38.320Z,15.18
2023-12-11T03:27:05.766Z,16.65
2023-12-11T03:29:33.261Z,17.58
2023-12-11T03:32:00.862Z,18.15
2023-12-11T03:34:28.514Z,17.92
2023-12-11T03:36:56.017Z,15.90
2023-12-11T03:39:23.243Z,17.00
2023-12-11T03:41:51.694Z,16.20
2023-12-11T03:44:19.141Z,17.02
2023-12-11T03:46:46.456Z,15.35
2023-12-11T03:49:18.091Z,15.73
2023-12-11T03:51:45.793Z,15.63
2023-12-11T03:54:13.306Z,15.93
2023-12-11T03:56:40.830Z,14.73
2023-12-11T03:59:08.201Z,15.95
2023-12-11T04:01:35.642Z,17.67
2023-12-11T04:04:03.418Z,18.58
2023-12-11T04:06:31.085Z,18.70
2023-12-11T04:08:58.625Z,19.00
2023-12-11T04:11:25.870Z,17.63
2023-12-11T04:13:53.329Z,20.25
2023-12-11T04:16:20.597Z,19.17
2023-12-11T04:18:48.002Z,18.90
2023-12-11T04:21:15.298Z,19.95
2023-12-11T04:23:42.546Z,20.25
2023-12-11T04:26:09.707Z,18.67
2023-12-11T04:28:36.916Z,18.00
2023-12-11T04:31:04.385Z,21.25
2023-12-11T04:33:34.191Z,19.40
2023-12-11T04:36:01.564Z,19.23
2023-12-11T04:38:29.011Z,21.25
2023-12-11T04:40:56.360Z,19.52
2023-12-11T04:43:23.564Z,19.73
2023-12-11T04:45:50.947Z,21.92
2023-12-11T04:48:18.534Z,20.30
2023-12-11T04:50:46.276Z,21.40
2023-12-11T04:53:13.668Z,23.95
2023-12-11T04:55:41.025Z,21.02
2023-12-11T04:58:08.404Z,21.02
2023-12-11T05:00:35.708Z,21.15
2023-12-11T05:03:03.280Z,19.85
2023-12-11T05:05:30.592Z,18.35
2023-12-11T05:07:58.013Z,20.33
2023-12-11T05:10:25.276Z,19.33
2023-12-11T05:12:52.439Z,19.27
2023-12-11T05:15:20.111Z,21.80
2023-12-11T05:17:47.566Z,20.55
2023-12-11T05:20:17.560Z,21.27
2023-12-11T05:22:44.862Z,23.00
2023-12-11T05:25:12.169Z,21.40
2023-12-11T05:27:40.514Z,23.40
2023-12-11T05:30:08.557Z,22.27
2023-12-11T05:32:36.261Z,22.88
2023-12-11T05:35:04.996Z,21.80
2023-12-11T05:37:32.693Z,22.58
2023-12-11T05:40:20.764Z,27.52
2023-12-11T05:42:47.376Z,21.23
2023-12-11T05:45:14.570Z,22.98
2023-12-11T05:47:41.948Z,22.60
2023-12-11T05:50:09.712Z,20.33
2023-12-11T05:52:37.110Z,24.55
2023-12-11T05:55:04.842Z,23.02
2023-12-11T05:57:32.616Z,21.80
2023-12-11T05:59:59.947Z,21.52
2023-12-11T06:02:27.367Z,21.48
2023-12-11T06:04:54.680Z,20.52
2023-12-11T06:07:21.993Z,21.27
2023-12-11T06:09:49.769Z,22.63
2023-12-11T06:12:17.269Z,20.25
2023-12-11T06:14:47.394Z,20.13
2023-12-11T06:17:16.812Z,20.58
2023-12-11T06:19:44.708Z,21.40
2023-12-11T06:22:12.829Z,20.58
2023-12-11T06:24:41.189Z,20.08
2023-12-11T06:27:09.746Z,20.42
2023-12-11T06:29:37.868Z,19.45
2023-12-11T06:32:05.509Z,21.25
2023-12-11T06:34:34.985Z,20.55
2023-12-11T06:37:03.345Z,21.17
2023-12-11T06:39:31.448Z,22.17
2023-12-11T06:42:00.112Z,20.88
2023-12-11T06:44:27.911Z,21.48
2023-12-11T06:46:55.583Z,21.65
2023-12-11T06:49:23.189Z,21.67
2023-12-11T06:51:51.436Z,19.67
2023-12-11T06:54:19.471Z,22.00
2023-12-11T06:56:46.732Z,21.40
2023-12-11T06:59:14.214Z,19.83
2023-12-11T07:01:42.545Z,19.98
2023-12-11T07:04:10.370Z,20.63
2023-12-11T07:06:39.051Z,20.73
2023-12-11T07:09:06.557Z,22.10
2023-12-11T07:11:33.949Z,20.60
2023-12-11T07:14:01.275Z,20.65
2023-12-11T07:16:28.679Z,21.05
2023-12-11T07:18:56.270Z,20.08
2023-12-11T07:21:23.664Z,20.35
2023-12-11T07:23:51.737Z,19.55
2023-12-11T07:26:19.232Z,21.10
2023-12-11T07:28:46.517Z,20.73
2023-12-11T07:31:13.981Z,19.55
2023-12-11T07:33:42.716Z,20.25
2023-12-11T07:36:11.936Z,20.73
2023-12-11T07:38:39.166Z,20.23
2023-12-11T07:41:08.065Z,20.88
2023-12-11T07:43:36.914Z,21.55
2023-12-11T07:46:05.356Z,19.83
2023-12-11T07:48:32.791Z,20.95
2023-12-11T07:51:00.396Z,19.40
2023-12-11T07:53:27.936Z,19.70
2023-12-11T07:55:55.183Z,17.83
2023-12-11T07:58:22.628Z,20.20
2023-12-11T08:00:50.080Z,20.30
2023-12-11T08:03:17.733Z,21.75
2023-12-11T08:05:45.205Z,19.02
2023-12-11T08:08:13.418Z,19.50
2023-12-11T08:10:41.204Z,21.67
2023-12-11T08:13:08.995Z,23.40
2023-12-11T08:15:37.357Z,23.27
2023-12-11T08:18:04.781Z,22.45
2023-12-11T08:20:32.278Z,22.45
2023-12-11T08:22:59.523Z,20.60
2023-12-11T08:25:27.073Z,21.13
2023-12-11T08:27:54.933Z,21.58
2023-12-11T08:30:22.160Z,23.08
2023-12-11T08:32:49.476Z,20.80
2023-12-11T08:35:16.876Z,24.40
2023-12-11T08:37:44.562Z,22.15
2023-12-11T08:40:12.108Z,23.30
2023-12-11T08:42:41.400Z,22.73
2023-12-11T08:45:10.131Z,23.25
2023-12-11T08:47:39.804Z,23.10
2023-12-11T08:50:08.775Z,26.10
2023-12-11T08:52:37.208Z,25.83
2023-12-11T08:55:04.771Z,27.83
2023-12-11T08:57:50.761Z,25.52
2023-12-11T09:00:18.224Z,28.60
2023-12-11T09:02:45.622Z,26.80
2023-12-11T09:05:12.909Z,23.55
2023-12-11T09:07:40.091Z,22.98
2023-12-11T09:10:09.582Z,24.25
2023-12-11T09:12:37.458Z,24.35
2023-12-11T09:15:05.141Z,20.45
2023-12-11T09:17:33.846Z,22.63
2023-12-11T09:20:05.538Z,22.42
2023-12-11T09:22:33.367Z,22.05
2023-12-11T09:25:00.797Z,23.33
2023-12-11T09:27:28.233Z,22.25
2023-12-11T09:29:55.665Z,23.23
2023-12-11T09:32:23.762Z,22.05
2023-12-11T09:34:52.696Z,20.92
2023-12-11T09:37:20.797Z,21.67
2023-12-11T09:39:48.605Z,21.23
2023-12-11T09:42:15.928Z,22.65
2023-12-11T09:44:46.142Z,24.83
2023-12-11T09:47:19.736Z,24.48
2023-12-11T09:49:47.815Z,22.73
2023-12-11T09:52:15.504Z,23.70
2023-12-11T09:54:43.469Z,21.73
2023-12-11T09:57:12.075Z,24.00
2023-12-11T09:59:41.132Z,22.50
2023-12-11T10:02:18.469Z,23.60
2023-12-11T10:05:15.389Z,22.95
2023-12-11T10:07:43.357Z,22.08
2023-12-11T10:10:23.035Z,22.95
2023-12-11T10:12:50.636Z,25.42
2023-12-11T10:15:25.278Z,24.70
2023-12-11T10:18:03.902Z,27.42
2023-12-11T10:20:31.592Z,24.75
2023-12-11T10:23:03.208Z,25.38
2023-12-11T10:25:31.978Z,23.70
2023-12-11T10:28:06.623Z,22.98
2023-12-11T10:30:34.085Z,22.73
2023-12-11T10:33:02.798Z,25.05
2023-12-11T10:35:30.259Z,21.98
2023-12-11T10:38:01.727Z,23.88
2023-12-11T10:40:42.228Z,23.70
2023-12-11T10:43:09.794Z,23.27
2023-12-11T10:45:40.250Z,23.48
2023-12-11T10:48:08.470Z,24.13
2023-12-11T10:50:37.208Z,22.85
2023-12-11T10:53:07.471Z,23.30
2023-12-11T10:55:37.370Z,23.63
2023-12-11T10:58:04.902Z,23.17
2023-12-11T11:00:33.908Z,23.63
2023-12-11T11:03:06.469Z,23.60
2023-12-11T11:05:36.274Z,23.70
2023-12-11T11:08:43.749Z,22.02
2023-12-11T11:11:11.307Z,23.00
2023-12-11T11:13:41.433Z,24.23
2023-12-11T11:16:09.021Z,26.52
2023-12-11T11:18:59.094Z,25.23
2023-12-11T11:21:26.356Z,24.42
2023-12-11T11:23:56.200Z,23.20
2023-12-11T11:26:44.046Z,23.60
2023-12-11T11:29:33.802Z,22.17
2023-12-11T11:32:01.513Z,26.25
2023-12-11T11:34:41.518Z,24.20
2023-12-11T11:37:19.103Z,26.60
2023-12-11T11:39:59.249Z,23.45
2023-12-11T11:42:28.739Z,23.60
2023-12-11T11:45:00.104Z,24.77
2023-12-11T11:47:28.073Z,23.00
2023-12-11T11:50:03.975Z,25.92
2023-12-11T11:52:31.339Z,25.58
2023-12-11T11:55:02.686Z,26.38
2023-12-11T11:57:30.437Z,25.70
2023-12-11T11:59:57.770Z,27.25
2023-12-11T12:02:25.348Z,26.70
2023-12-11T12:04:52.685Z,25.77
2023-12-11T12:07:20.264Z,28.17
2023-12-11T12:09:51.556Z,27.73
2023-12-11T12:12:19.088Z,28.70
2023-12-11T12:14:46.663Z,32.08
2023-12-11T12:17:13.928Z,28.75
2023-12-11T12:19:41.241Z,27.13
2023-12-11T12:22:10.388Z,27.75
2023-12-11T12:24:41.742Z,25.75
2023-12-11T12:27:10.994Z,27.35
2023-12-11T12:29:38.340Z,29.73
2023-12-11T12:32:05.928Z,29.30
2023-12-11T12:34:35.295Z,30.20
2023-12-11T12:37:04.860Z,32.95
2023-12-11T12:39:32.390Z,29.15
2023-12-11T12:41:59.663Z,30.63
2023-12-11T12:44:26.883Z,28.65
2023-12-11T12:46:54.524Z,28.77
2023-12-11T12:49:21.862Z,27.23
2023-12-11T12:51:50.348Z,30.17
2023-12-11T12:54:17.763Z,27.85
2023-12-11T12:56:45.691Z,27.75
2023-12-11T12:59:13.135Z,25.98
2023-12-11T13:01:41.862Z,24.45
2023-12-11T13:04:09.880Z,25.40
2023-12-11T13:06:37.437Z,24.77
2023-12-11T13:09:05.724Z,21.85
2023-12-11T13:11:42.995Z,23.02
2023-12-11T13:14:13.878Z,21.55
2023-12-11T13:16:45.286Z,21.98
2023-12-11T13:19:15.098Z,24.25
2023-12-11T13:21:43.043Z,24.65
2023-12-11T13:24:10.398Z,25.13
2023-12-11T13:26:37.692Z,24.92
2023-12-11T13:29:04.899Z,24.23
2023-12-11T13:31:32.208Z,23.55
2023-12-11T13:33:59.714Z,23.75
2023-12-11T13:36:26.964Z,23.75
2023-12-11T13:38:54.184Z,22.98
2023-12-11T13:41:21.389Z,23.50
2023-12-11T13:43:48.625Z,22.88
2023-12-11T13:46:15.896Z,24.23
2023-12-11T13:48:43.282Z,23.10
2023-12-11T13:51:11.208Z,22.85
2023-12-11T13:53:38.638Z,24.42
2023-12-11T13:56:06.291Z,22.50
2023-12-11T13:58:33.649Z,23.17
2023-12-11T14:01:02.117Z,23.20
2023-12-11T14:03:32.776Z,24.17
2023-12-11T14:06:00.221Z,22.40
2023-12-11T14:08:28.074Z,24.15
2023-12-11T14:10:55.311Z,24.60
2023-12-11T14:13:22.527Z,23.95
2023-12-11T14:15:49.894Z,23.73
2023-12-11T14:18:17.100Z,23.25
2023-12-11T14:20:44.298Z,22.70
2023-12-11T14:23:13.471Z,25.20
2023-12-11T14:25:40.877Z,24.40
2023-12-11T14:28:08.102Z,22.95
2023-12-11T14:30:35.936Z,22.45
2023-12-11T14:33:04.374Z,25.77
2023-12-11T14:35:31.689Z,22.92
2023-12-11T14:37:59.458Z,22.77
2023-12-11T14:40:26.765Z,23.55
2023-12-11T14:42:54.180Z,24.15
2023-12-11T14:45:21.525Z,22.27
2023-12-11T14:47:49.049Z,24.85
2023-12-11T14:50:16.726Z,22.33
2023-12-11T14:52:45.036Z,21.40
2023-12-11T14:55:13.863Z,22.50
2023-12-11T14:57:42.699Z,23.67
2023-12-11T15:00:13.721Z,23.50
2023-12-11T15:02:41.166Z,24.08
2023-12-11T15:05:08.613Z,23.95
2023-12-11T15:07:36.331Z,24.52
2023-12-11T15:10:04.641Z,23.83
2023-12-11T15:12:32.227Z,22.77
2023-12-11T15:15:03.773Z,24.33
2023-12-11T15:17:31.210Z,25.65
2023-12-11T15:19:58.830Z,23.65
2023-12-11T15:22:26.280Z,23.35
2023-12-11T15:24:56.385Z,23.90
2023-12-11T15:27:23.549Z,23.27
2023-12-11T15:29:51.991Z,23.92
2023-12-11T15:32:20.965Z,23.35
2023-12-11T15:34:48.290Z,22.92
2023-12-11T15:37:15.824Z,23.33
2023-12-11T15:39:43.155Z,25.75
2023-12-11T15:42:10.576Z,25.13
2023-12-11T15:44:38.083Z,26.73
2023-12-11T15:47:07.769Z,25.73
2023-12-11T15:49:36.495Z,25.45
2023-12-11T15:52:03.965Z,25.05
2023-12-11T15:54:33.335Z,26.45
2023-12-11T15:57:01.408Z,24.50
2023-12-11T15:59:28.856Z,23.67
2023-12-11T16:01:56.285Z,25.23
2023-12-11T16:04:23.621Z,24.35
2023-12-11T16:06:51.003Z,23.92
2023-12-11T16:09:19.148Z,25.60
2023-12-11T16:11:46.874Z,24.13
2023-12-11T16:14:14.093Z,25.48
2023-12-11T16:16:43.483Z,26.10
2023-12-11T16:19:11.680Z,25.67
2023-12-11T16:21:39.412Z,25.35
2023-12-11T16:24:06.744Z,27.60
2023-12-11T16:26:33.951Z,26.77
2023-12-11T16:29:01.152Z,25.88
2023-12-11T16:31:28.488Z,26.63
2023-12-11T16:33:56.029Z,27.23
2023-12-11T16:36:23.489Z,25.67
2023-12-11T16:38:51.274Z,25.95
2023-12-11T16:41:26.360Z,24.17
2023-12-11T16:43:53.909Z,24.42
2023-12-11T16:46:22.029Z,25.35
2023-12-11T16:48:49.597Z,24.00
2023-12-11T16:51:17.060Z,23.65
2023-12-11T16:53:46.975Z,26.05
2023-12-11T16:56:14.582Z,24.00
2023-12-11T16:58:43.080Z,24.17
2023-12-11T17:01:12.636Z,24.90
2023-12-11T17:03:40.163Z,23.10
2023-12-11T17:06:07.609Z,25.48
2023-12-11T17:08:34.756Z,25.67
2023-12-11T17:11:02.183Z,25.20
2023-12-11T17:13:29.495Z,26.88
2023-12-11T17:15:56.947Z,27.33
2023-12-11T17:18:26.212Z,25.95
2023-12-11T17:20:53.941Z,25.77
2023-12-11T17:23:21.160Z,27.95
2023-12-11T17:25:48.409Z,27.45
2023-12-11T17:28:15.935Z,27.80
2023-12-11T17:30:44.064Z,27.05
2023-12-11T17:33:11.409Z,24.85
2023-12-11T17:35:38.802Z,28.58
2023-12-11T17:38:06.252Z,27.30
2023-12-11T17:40:33.640Z,28.75
2023-12-11T17:43:00.926Z,27.88
2023-12-11T17:45:28.736Z,28.08
2023-12-11T17:47:56.129Z,29.38
2023-12-11T17:50:23.366Z,27.38
2023-12-11T17:52:50.573Z,29.70
2023-12-11T17:55:18.121Z,29.00
2023-12-11T17:57:45.545Z,27.38
2023-12-11T18:00:13.108Z,27.35
2023-12-11T18:02:40.428Z,27.30
2023-12-11T18:05:07.917Z,25.35
2023-12-11T18:07:35.536Z,26.85
2023-12-11T18:10:03.283Z,28.33
2023-12-11T18:12:30.587Z,30.17
2023-12-11T18:14:57.760Z,32.33
2023-12-11T18:17:24.954Z,36.40
2023-12-11T18:19:52.482Z,36.88
2023-12-11T18:22:19.864Z,35.75
2023-12-11T18:24:47.169Z,37.90
2023-12-11T18:27:14.416Z,41.33
2023-12-11T18:29:41.888Z,39.38
2023-12-11T18:32:09.816Z,39.00
2023-12-11T18:34:43.543Z,44.55
2023-12-11T18:37:19.746Z,42.55
2023-12-11T18:39:47.144Z,39.42
2023-12-11T18:42:14.670Z,36.00
2023-12-11T18:44:42.843Z,35.45
2023-12-11T18:47:10.105Z,35.17
2023-12-11T18:49:41.389Z,35.42
2023-12-11T18:52:11.081Z,33.00
2023-12-11T18:54:38.362Z,30.63
2023-12-11T18:57:05.624Z,31.88
2023-12-11T18:59:32.910Z,32.67
2023-12-11T19:02:00.363Z,31.90
2023-12-11T19:04:27.842Z,31.73
2023-12-11T19:06:55.271Z,31.77
2023-12-11T19:09:22.537Z,35.42
2023-12-11T19:11:51.891Z,31.65
2023-12-11T19:14:19.312Z,30.02
2023-12-11T19:16:47.012Z,32.78
2023-12-11T19:19:14.495Z,31.85
2023-12-11T19:21:42.153Z,31.52
2023-12-11T19:24:10.523Z,33.60
2023-12-11T19:26:38.734Z,31.48
2023-12-11T19:29:06.119Z,32.53
2023-12-11T19:31:33.599Z,33.20
2023-12-11T19:34:02.324Z,33.50
2023-12-11T19:36:31.702Z,35.20
2023-12-11T19:39:01.786Z,34.17
2023-12-11T19:41:29.086Z,33.97
2023-12-11T19:43:57.359Z,33.97
2023-12-11T19:46:25.050Z,34.67
2023-12-11T19:48:55.723Z,34.50
2023-12-11T19:51:25.071Z,33.70
2023-12-11T19:53:53.794Z,35.95
2023-12-11T19:56:22.418Z,36.83
2023-12-11T19:58:52.037Z,37.13
2023-12-11T20:01:29.229Z,35.80
2023-12-11T20:03:56.896Z,35.80
2023-12-11T20:06:28.764Z,36.58
2023-12-11T20:08:56.880Z,37.88
2023-12-11T20:11:27.041Z,34.95
2023-12-11T20:13:54.296Z,36.70
2023-12-11T20:16:23.608Z,36.03
2023-12-11T20:18:51.180Z,34.70
2023-12-11T20:21:18.600Z,34.47
2023-12-11T20:23:47.495Z,35.58
2023-12-11T20:26:18.708Z,35.28
2023-12-11T20:28:45.989Z,33.33
2023-12-11T20:31:17.116Z,36.67
2023-12-11T20:33:45.693Z,33.08
2023-12-11T20:36:19.963Z,36.53
2023-12-11T20:38:48.537Z,33.40
2023-12-11T20:41:28.362Z,34.22
2023-12-11T20:44:04.188Z,35.70
2023-12-11T20:46:32.874Z,32.45
2023-12-11T20:49:00.776Z,32.17
2023-12-11T20:51:28.950Z,32.88
2023-12-11T20:53:56.333Z,36.20
2023-12-11T20:56:31.611Z,35.13
2023-12-11T20:59:00.855Z,33.28
2023-12-11T21:01:29.797Z,33.60
2023-12-11T21:03:58.110Z,33.30
2023-12-11T21:06:25.772Z,33.88
2023-12-11T21:08:53.516Z,35.00
2023-12-11T21:11:21.270Z,33.22
2023-12-11T21:13:49.336Z,34.92
2023-12-11T21:16:17.646Z,32.90
2023-12-11T21:18:47.017Z,33.53
2023-12-11T21:21:23.375Z,33.03
2023-12-11T21:23:51.320Z,31.38
2023-12-11T21:26:25.193Z,32.40
2023-12-11T21:28:54.434Z,32.70
2023-12-11T21:31:23.446Z,31.70
2023-12-11T21:33:52.430Z,30.85
2023-12-11T21:36:24.417Z,31.07
2023-12-11T21:38:51.970Z,30.48
2023-12-11T21:41:19.578Z,28.73
2023-12-11T21:43:48.302Z,25.77
2023-12-11T21:46:16.961Z,27.90
2023-12-11T21:48:45.193Z,26.77
2023-12-11T21:51:16.580Z,26.17
2023-12-11T21:53:44.411Z,28.60
2023-12-11T21:56:11.782Z,29.10
2023-12-11T21:58:39.274Z,27.88
2023-12-11T22:01:06.687Z,30.15
2023-12-11T22:03:34.155Z,30.42
2023-12-11T22:06:03.933Z,30.77
2023-12-11T22:08:31.346Z,31.63
2023-12-11T22:10:58.577Z,31.38
2023-12-11T22:13:26.086Z,28.98
2023-12-11T22:15:53.522Z,30.05
2023-12-11T22:18:21.151Z,29.40
2023-12-11T22:20:48.613Z,29.08
2023-12-11T22:23:15.839Z,27.80
2023-12-11T22:25:43.172Z,30.15
2023-12-11T22:28:10.770Z,27.52
2023-12-11T22:30:38.137Z,28.60
2023-12-11T22:33:05.435Z,27.38
2023-12-11T22:35:32.732Z,27.15
2023-12-11T22:37:59.938Z,25.05
2023-12-11T22:40:27.290Z,25.55
2023-12-11T22:42:54.592Z,27.08
2023-12-11T22:45:22.994Z,22.33
2023-12-11T22:47:50.534Z,23.52
2023-12-11T22:50:17.876Z,23.05
2023-12-11T22:52:45.102Z,23.95
2023-12-11T22:55:12.733Z,23.42
2023-12-11T22:57:40.464Z,22.85
2023-12-11T23:00:11.793Z,21.90
2023-12-11T23:02:39.844Z,20.25
2023-12-11T23:05:07.423Z,20.17
2023-12-11T23:07:35.259Z,19.42
2023-12-11T23:10:03.046Z,20.27
2023-12-11T23:12:30.311Z,20.45
2023-12-11T23:14:57.755Z,21.88
2023-12-11T23:17:25.048Z,22.17
2023-12-11T23:19:52.452Z,21.63
2023-12-11T23:22:19.729Z,21.95
2023-12-11T23:24:46.947Z,22.10
2023-12-11T23:27:14.049Z,21.90
2023-12-11T23:29:42.339Z,22.92
2023-12-11T23:32:13.071Z,21.92
2023-12-11T23:34:40.284Z,22.00
2023-12-11T23:37:07.489Z,20.77
2023-12-11T23:39:34.824Z,23.23
2023-12-11T23:42:02.032Z,22.25
2023-12-11T23:44:29.262Z,22.70
2023-12-11T23:46:56.466Z,23.17
2023-12-11T23:49:23.709Z,21.38
2023-12-11T23:51:50.988Z,22.40
2023-12-11T23:54:18.260Z,21.90
2023-12-11T23:56:45.755Z,22.20
2023-12-11T23:59:13.002Z,19.85
